sensor_id;sensor_type;location;lat;lon;timestamp;P1;durP1;ratioP1;P2;durP2;ratioP2
63218;SDS011;49320;52.512;13.448;2022-08-30T00:02:00;1.50;;;1.40;;
63218;SDS011;49320;52.512;13.448;2022-08-30T00:04:28;1.85;;;1.35;;
63218;SDS011;49320;52.512;13.448;2022-08-30T00:06:55;1.48;;;1.30;;
63218;SDS011;49320;52.512;13.448;2022-08-30T00:09:22;1.80;;;1.50;;
63218;SDS011;49320;52.512;13.448;2022-08-30T00:11:49;1.55;;;1.10;;
63218;SDS011;49320;52.512;13.448;2022-08-30T00:14:17;1.48;;;1.38;;
63218;SDS011;49320;52.512;13.448;2022-08-30T00:16:45;1.58;;;1.48;;
63218;SDS011;49320;52.512;13.448;2022-08-30T00:19:12;1.40;;;1.30;;
63218;SDS011;49320;52.512;13.448;2022-08-30T00:21:39;1.40;;;1.30;;
63218;SDS011;49320;52.512;13.448;2022-08-30T00:24:05;1.50;;;1.25;;
63218;SDS011;49320;52.512;13.448;2022-08-30T00:26:33;1.52;;;1.40;;
63218;SDS011;49320;52.512;13.448;2022-08-30T00:29:00;2.08;;;1.60;;
63218;SDS011;49320;52.512;13.448;2022-08-30T00:31:27;2.25;;;1.50;;
63218;SDS011;49320;52.512;13.448;2022-08-30T00:33:53;1.77;;;1.33;;
63218;SDS011;49320;52.512;13.448;2022-08-30T00:36:20;1.80;;;1.30;;
63218;SDS011;49320;52.512;13.448;2022-08-30T00:38:47;1.80;;;1.52;;
63218;SDS011;49320;52.512;13.448;2022-08-30T00:41:14;2.13;;;1.45;;
63218;SDS011;49320;52.512;13.448;2022-08-30T00:43:41;1.52;;;1.42;;
63218;SDS011;49320;52.512;13.448;2022-08-30T00:46:08;1.60;;;1.50;;
63218;SDS011;49320;52.512;13.448;2022-08-30T00:48:39;1.67;;;1.48;;
63218;SDS011;49320;52.512;13.448;2022-08-30T00:51:11;2.10;;;1.58;;
63218;SDS011;49320;52.512;13.448;2022-08-30T00:53:42;1.80;;;1.63;;
63218;SDS011;49320;52.512;13.448;2022-08-30T00:56:15;1.83;;;1.65;;
63218;SDS011;49320;52.512;13.448;2022-08-30T00:58:44;1.48;;;1.38;;
63218;SDS011;49320;52.512;13.448;2022-08-30T01:01:17;1.70;;;1.60;;
63218;SDS011;49320;52.512;13.448;2022-08-30T01:03:45;1.80;;;1.65;;
63218;SDS011;49320;52.512;13.448;2022-08-30T01:06:13;1.73;;;1.63;;
63218;SDS011;49320;52.512;13.448;2022-08-30T01:08:42;1.98;;;1.60;;
63218;SDS011;49320;52.512;13.448;2022-08-30T01:11:11;1.55;;;1.45;;
63218;SDS011;49320;52.512;13.448;2022-08-30T01:13:42;1.58;;;1.48;;
63218;SDS011;49320;52.512;13.448;2022-08-30T01:16:12;2.38;;;1.73;;
63218;SDS011;49320;52.512;13.448;2022-08-30T01:18:39;2.05;;;1.65;;
63218;SDS011;49320;52.512;13.448;2022-08-30T01:21:13;1.88;;;1.65;;
63218;SDS011;49320;52.512;13.448;2022-08-30T01:23:53;3.22;;;1.75;;
63218;SDS011;49320;52.512;13.448;2022-08-30T01:26:24;2.42;;;1.98;;
63218;SDS011;49320;52.512;13.448;2022-08-30T01:28:56;2.10;;;1.90;;
63218;SDS011;49320;52.512;13.448;2022-08-30T01:31:31;4.03;;;2.28;;
63218;SDS011;49320;52.512;13.448;2022-08-30T01:34:05;2.45;;;2.00;;
63218;SDS011;49320;52.512;13.448;2022-08-30T01:36:34;2.25;;;2.03;;
63218;SDS011;49320;52.512;13.448;2022-08-30T01:39:10;2.40;;;2.17;;
63218;SDS011;49320;52.512;13.448;2022-08-30T01:41:40;2.10;;;1.90;;
63218;SDS011;49320;52.512;13.448;2022-08-30T01:44:09;3.28;;;2.35;;
63218;SDS011;49320;52.512;13.448;2022-08-30T01:46:40;2.83;;;2.33;;
63218;SDS011;49320;52.512;13.448;2022-08-30T01:49:13;2.40;;;2.00;;
63218;SDS011;49320;52.512;13.448;2022-08-30T01:51:53;2.75;;;2.15;;
63218;SDS011;49320;52.512;13.448;2022-08-30T01:54:26;2.40;;;2.20;;
63218;SDS011;49320;52.512;13.448;2022-08-30T01:57:03;2.72;;;2.40;;
63218;SDS011;49320;52.512;13.448;2022-08-30T01:59:36;3.35;;;2.28;;
63218;SDS011;49320;52.512;13.448;2022-08-30T02:02:07;3.35;;;2.38;;
63218;SDS011;49320;52.512;13.448;2022-08-30T02:04:35;2.60;;;2.40;;
63218;SDS011;49320;52.512;13.448;2022-08-30T02:07:02;2.47;;;2.28;;
63218;SDS011;49320;52.512;13.448;2022-08-30T02:09:30;4.20;;;2.63;;
63218;SDS011;49320;52.512;13.448;2022-08-30T02:11:57;3.83;;;2.80;;
63218;SDS011;49320;52.512;13.448;2022-08-30T02:14:24;3.22;;;2.78;;
63218;SDS011;49320;52.512;13.448;2022-08-30T02:16:51;2.80;;;2.28;;
63218;SDS011;49320;52.512;13.448;2022-08-30T02:19:18;2.60;;;2.35;;
63218;SDS011;49320;52.512;13.448;2022-08-30T02:21:45;2.90;;;2.60;;
63218;SDS011;49320;52.512;13.448;2022-08-30T02:24:12;2.97;;;2.45;;
63218;SDS011;49320;52.512;13.448;2022-08-30T02:26:38;2.63;;;2.42;;
63218;SDS011;49320;52.512;13.448;2022-08-30T02:29:05;2.35;;;2.15;;
63218;SDS011;49320;52.512;13.448;2022-08-30T02:31:32;2.65;;;2.08;;
63218;SDS011;49320;52.512;13.448;2022-08-30T02:34:00;2.40;;;2.20;;
63218;SDS011;49320;52.512;13.448;2022-08-30T02:36:27;2.83;;;2.53;;
63218;SDS011;49320;52.512;13.448;2022-08-30T02:38:54;2.60;;;2.40;;
63218;SDS011;49320;52.512;13.448;2022-08-30T02:41:21;3.00;;;2.67;;
63218;SDS011;49320;52.512;13.448;2022-08-30T02:43:49;2.45;;;2.25;;
63218;SDS011;49320;52.512;13.448;2022-08-30T02:46:17;2.80;;;2.40;;
63218;SDS011;49320;52.512;13.448;2022-08-30T02:48:44;2.70;;;2.50;;
63218;SDS011;49320;52.512;13.448;2022-08-30T02:51:12;3.45;;;2.92;;
63218;SDS011;49320;52.512;13.448;2022-08-30T02:53:40;2.45;;;2.25;;
63218;SDS011;49320;52.512;13.448;2022-08-30T02:56:09;2.30;;;2.03;;
63218;SDS011;49320;52.512;13.448;2022-08-30T02:58:38;2.28;;;2.08;;
63218;SDS011;49320;52.512;13.448;2022-08-30T03:01:08;2.53;;;2.30;;
63218;SDS011;49320;52.512;13.448;2022-08-30T03:03:39;2.47;;;2.28;;
63218;SDS011;49320;52.512;13.448;2022-08-30T03:06:08;3.25;;;2.17;;
63218;SDS011;49320;52.512;13.448;2022-08-30T03:08:35;2.63;;;2.42;;
63218;SDS011;49320;52.512;13.448;2022-08-30T03:11:03;2.85;;;2.55;;
63218;SDS011;49320;52.512;13.448;2022-08-30T03:13:30;2.38;;;2.17;;
63218;SDS011;49320;52.512;13.448;2022-08-30T03:15:56;2.80;;;2.50;;
63218;SDS011;49320;52.512;13.448;2022-08-30T03:18:24;3.25;;;2.53;;
63218;SDS011;49320;52.512;13.448;2022-08-30T03:20:51;4.07;;;2.60;;
63218;SDS011;49320;52.512;13.448;2022-08-30T03:23:19;3.55;;;2.67;;
63218;SDS011;49320;52.512;13.448;2022-08-30T03:25:49;2.78;;;2.53;;
63218;SDS011;49320;52.512;13.448;2022-08-30T03:28:16;3.15;;;2.45;;
63218;SDS011;49320;52.512;13.448;2022-08-30T03:30:43;2.85;;;2.58;;
63218;SDS011;49320;52.512;13.448;2022-08-30T03:33:10;2.78;;;2.28;;
63218;SDS011;49320;52.512;13.448;2022-08-30T03:35:36;3.10;;;2.67;;
63218;SDS011;49320;52.512;13.448;2022-08-30T03:38:03;3.13;;;2.83;;
63218;SDS011;49320;52.512;13.448;2022-08-30T03:40:31;2.55;;;2.35;;
63218;SDS011;49320;52.512;13.448;2022-08-30T03:42:58;2.78;;;2.58;;
63218;SDS011;49320;52.512;13.448;2022-08-30T03:45:26;3.05;;;2.75;;
63218;SDS011;49320;52.512;13.448;2022-08-30T03:47:53;3.17;;;2.88;;
63218;SDS011;49320;52.512;13.448;2022-08-30T03:50:20;2.75;;;2.33;;
63218;SDS011;49320;52.512;13.448;2022-08-30T03:52:47;3.38;;;2.80;;
63218;SDS011;49320;52.512;13.448;2022-08-30T03:55:14;3.25;;;2.95;;
63218;SDS011;49320;52.512;13.448;2022-08-30T03:57:41;3.17;;;2.88;;
63218;SDS011;49320;52.512;13.448;2022-08-30T04:00:09;3.00;;;2.70;;
63218;SDS011;49320;52.512;13.448;2022-08-30T04:02:38;2.63;;;2.42;;
63218;SDS011;49320;52.512;13.448;2022-08-30T04:05:07;3.10;;;2.30;;
63218;SDS011;49320;52.512;13.448;2022-08-30T04:07:36;2.85;;;2.65;;
63218;SDS011;49320;52.512;13.448;2022-08-30T04:10:06;3.20;;;2.85;;
63218;SDS011;49320;52.512;13.448;2022-08-30T04:12:35;3.03;;;2.72;;
63218;SDS011;49320;52.512;13.448;2022-08-30T04:15:04;3.17;;;2.60;;
63218;SDS011;49320;52.512;13.448;2022-08-30T04:17:31;2.83;;;2.63;;
63218;SDS011;49320;52.512;13.448;2022-08-30T04:19:58;2.92;;;2.63;;
63218;SDS011;49320;52.512;13.448;2022-08-30T04:22:25;2.90;;;2.50;;
63218;SDS011;49320;52.512;13.448;2022-08-30T04:24:52;3.60;;;3.22;;
63218;SDS011;49320;52.512;13.448;2022-08-30T04:27:19;2.75;;;2.55;;
63218;SDS011;49320;52.512;13.448;2022-08-30T04:29:46;3.30;;;2.80;;
63218;SDS011;49320;52.512;13.448;2022-08-30T04:32:13;3.45;;;2.85;;
63218;SDS011;49320;52.512;13.448;2022-08-30T04:34:42;4.13;;;2.65;;
63218;SDS011;49320;52.512;13.448;2022-08-30T04:37:09;3.28;;;2.97;;
63218;SDS011;49320;52.512;13.448;2022-08-30T04:39:36;2.97;;;2.47;;
63218;SDS011;49320;52.512;13.448;2022-08-30T04:42:03;3.10;;;2.80;;
63218;SDS011;49320;52.512;13.448;2022-08-30T04:44:30;3.83;;;3.15;;
63218;SDS011;49320;52.512;13.448;2022-08-30T04:46:58;3.17;;;2.78;;
63218;SDS011;49320;52.512;13.448;2022-08-30T04:49:25;3.67;;;2.78;;
63218;SDS011;49320;52.512;13.448;2022-08-30T04:51:52;3.42;;;3.00;;
63218;SDS011;49320;52.512;13.448;2022-08-30T04:54:19;3.28;;;2.95;;
63218;SDS011;49320;52.512;13.448;2022-08-30T04:56:46;3.20;;;2.90;;
63218;SDS011;49320;52.512;13.448;2022-08-30T04:59:13;3.08;;;2.80;;
63218;SDS011;49320;52.512;13.448;2022-08-30T05:01:40;3.70;;;3.08;;
63218;SDS011;49320;52.512;13.448;2022-08-30T05:04:11;4.40;;;3.90;;
63218;SDS011;49320;52.512;13.448;2022-08-30T05:06:40;3.58;;;3.15;;
63218;SDS011;49320;52.512;13.448;2022-08-30T05:09:07;3.55;;;3.10;;
63218;SDS011;49320;52.512;13.448;2022-08-30T05:11:34;3.92;;;3.35;;
63218;SDS011;49320;52.512;13.448;2022-08-30T05:14:01;3.58;;;3.20;;
63218;SDS011;49320;52.512;13.448;2022-08-30T05:16:27;3.38;;;3.08;;
63218;SDS011;49320;52.512;13.448;2022-08-30T05:18:54;4.43;;;3.25;;
63218;SDS011;49320;52.512;13.448;2022-08-30T05:21:23;3.65;;;3.35;;
63218;SDS011;49320;52.512;13.448;2022-08-30T05:23:55;6.70;;;3.70;;
63218;SDS011;49320;52.512;13.448;2022-08-30T05:26:29;4.70;;;3.78;;
63218;SDS011;49320;52.512;13.448;2022-08-30T05:28:59;4.55;;;4.10;;
63218;SDS011;49320;52.512;13.448;2022-08-30T05:31:30;4.10;;;3.70;;
63218;SDS011;49320;52.512;13.448;2022-08-30T05:34:00;4.03;;;3.70;;
63218;SDS011;49320;52.512;13.448;2022-08-30T05:36:29;4.13;;;3.72;;
63218;SDS011;49320;52.512;13.448;2022-08-30T05:38:59;4.45;;;4.05;;
63218;SDS011;49320;52.512;13.448;2022-08-30T05:41:26;4.93;;;3.40;;
63218;SDS011;49320;52.512;13.448;2022-08-30T05:43:54;4.35;;;3.95;;
63218;SDS011;49320;52.512;13.448;2022-08-30T05:46:24;4.10;;;3.70;;
63218;SDS011;49320;52.512;13.448;2022-08-30T05:48:55;5.22;;;4.00;;
63218;SDS011;49320;52.512;13.448;2022-08-30T05:51:23;4.55;;;4.03;;
63218;SDS011;49320;52.512;13.448;2022-08-30T05:53:54;4.70;;;4.20;;
63218;SDS011;49320;52.512;13.448;2022-08-30T05:56:24;4.38;;;3.97;;
63218;SDS011;49320;52.512;13.448;2022-08-30T05:58:56;4.28;;;3.88;;
63218;SDS011;49320;52.512;13.448;2022-08-30T06:01:24;4.47;;;4.07;;
63218;SDS011;49320;52.512;13.448;2022-08-30T06:03:57;4.63;;;3.70;;
63218;SDS011;49320;52.512;13.448;2022-08-30T06:06:29;3.78;;;3.42;;
63218;SDS011;49320;52.512;13.448;2022-08-30T06:09:00;4.90;;;3.53;;
63218;SDS011;49320;52.512;13.448;2022-08-30T06:11:31;4.32;;;3.92;;
63218;SDS011;49320;52.512;13.448;2022-08-30T06:13:59;4.85;;;4.35;;
63218;SDS011;49320;52.512;13.448;2022-08-30T06:16:28;4.90;;;4.40;;
63218;SDS011;49320;52.512;13.448;2022-08-30T06:18:56;5.43;;;4.60;;
63218;SDS011;49320;52.512;13.448;2022-08-30T06:21:28;7.13;;;4.25;;
63218;SDS011;49320;52.512;13.448;2022-08-30T06:24:00;4.45;;;4.05;;
63218;SDS011;49320;52.512;13.448;2022-08-30T06:26:29;5.32;;;4.25;;
63218;SDS011;49320;52.512;13.448;2022-08-30T06:28:57;5.15;;;4.65;;
63218;SDS011;49320;52.512;13.448;2022-08-30T06:31:24;5.13;;;4.63;;
63218;SDS011;49320;52.512;13.448;2022-08-30T06:33:52;4.82;;;4.32;;
63218;SDS011;49320;52.512;13.448;2022-08-30T06:36:22;4.82;;;4.32;;
63218;SDS011;49320;52.512;13.448;2022-08-30T06:38:52;4.45;;;4.05;;
63218;SDS011;49320;52.512;13.448;2022-08-30T06:41:26;4.30;;;3.90;;
63218;SDS011;49320;52.512;13.448;2022-08-30T06:43:57;4.40;;;4.00;;
63218;SDS011;49320;52.512;13.448;2022-08-30T06:46:30;4.32;;;3.92;;
63218;SDS011;49320;52.512;13.448;2022-08-30T06:49:01;4.60;;;4.20;;
63218;SDS011;49320;52.512;13.448;2022-08-30T06:51:34;5.18;;;4.68;;
63218;SDS011;49320;52.512;13.448;2022-08-30T06:54:05;4.82;;;4.28;;
63218;SDS011;49320;52.512;13.448;2022-08-30T06:56:37;4.93;;;4.47;;
63218;SDS011;49320;52.512;13.448;2022-08-30T06:59:07;4.78;;;4.35;;
63218;SDS011;49320;52.512;13.448;2022-08-30T07:01:34;5.28;;;4.78;;
63218;SDS011;49320;52.512;13.448;2022-08-30T07:04:02;4.75;;;4.35;;
63218;SDS011;49320;52.512;13.448;2022-08-30T07:06:31;5.68;;;5.07;;
63218;SDS011;49320;52.512;13.448;2022-08-30T07:08:58;5.00;;;4.55;;
63218;SDS011;49320;52.512;13.448;2022-08-30T07:11:28;5.18;;;4.70;;
63218;SDS011;49320;52.512;13.448;2022-08-30T07:14:02;6.25;;;5.07;;
63218;SDS011;49320;52.512;13.448;2022-08-30T07:16:30;5.15;;;4.65;;
63218;SDS011;49320;52.512;13.448;2022-08-30T07:18:57;5.05;;;4.55;;
63218;SDS011;49320;52.512;13.448;2022-08-30T07:21:31;5.53;;;4.65;;
63218;SDS011;49320;52.512;13.448;2022-08-30T07:24:02;5.80;;;5.30;;
63218;SDS011;49320;52.512;13.448;2022-08-30T07:26:35;5.55;;;4.40;;
63218;SDS011;49320;52.512;13.448;2022-08-30T07:29:07;4.60;;;4.20;;
63218;SDS011;49320;52.512;13.448;2022-08-30T07:31:35;4.78;;;4.13;;
63218;SDS011;49320;52.512;13.448;2022-08-30T07:34:03;4.50;;;4.10;;
63218;SDS011;49320;52.512;13.448;2022-08-30T07:36:32;4.78;;;3.95;;
63218;SDS011;49320;52.512;13.448;2022-08-30T07:39:00;4.18;;;3.78;;
63218;SDS011;49320;52.512;13.448;2022-08-30T07:41:29;4.20;;;3.63;;
63218;SDS011;49320;52.512;13.448;2022-08-30T07:44:00;4.60;;;4.20;;
63218;SDS011;49320;52.512;13.448;2022-08-30T07:46:28;4.75;;;3.65;;
63218;SDS011;49320;52.512;13.448;2022-08-30T07:48:55;4.57;;;3.88;;
63218;SDS011;49320;52.512;13.448;2022-08-30T07:51:27;5.18;;;4.50;;
63218;SDS011;49320;52.512;13.448;2022-08-30T07:53:55;4.32;;;3.92;;
63218;SDS011;49320;52.512;13.448;2022-08-30T07:56:22;4.85;;;4.38;;
63218;SDS011;49320;52.512;13.448;2022-08-30T07:58:50;6.50;;;5.18;;
63218;SDS011;49320;52.512;13.448;2022-08-30T08:01:18;5.20;;;4.72;;
63218;SDS011;49320;52.512;13.448;2022-08-30T08:03:47;4.78;;;4.38;;
63218;SDS011;49320;52.512;13.448;2022-08-30T08:06:16;5.50;;;5.00;;
63218;SDS011;49320;52.512;13.448;2022-08-30T08:08:45;5.22;;;4.60;;
63218;SDS011;49320;52.512;13.448;2022-08-30T08:11:14;4.28;;;3.88;;
63218;SDS011;49320;52.512;13.448;2022-08-30T08:13:45;4.50;;;4.10;;
63218;SDS011;49320;52.512;13.448;2022-08-30T08:16:20;4.85;;;4.20;;
63218;SDS011;49320;52.512;13.448;2022-08-30T08:18:51;4.05;;;3.65;;
63218;SDS011;49320;52.512;13.448;2022-08-30T08:21:20;3.83;;;3.42;;
63218;SDS011;49320;52.512;13.448;2022-08-30T08:23:49;3.22;;;2.92;;
63218;SDS011;49320;52.512;13.448;2022-08-30T08:26:17;3.28;;;2.47;;
63218;SDS011;49320;52.512;13.448;2022-08-30T08:28:45;3.10;;;2.80;;
63218;SDS011;49320;52.512;13.448;2022-08-30T08:31:13;2.42;;;2.20;;
63218;SDS011;49320;52.512;13.448;2022-08-30T08:33:50;4.40;;;2.00;;
63218;SDS011;49320;52.512;13.448;2022-08-30T08:36:17;2.40;;;2.20;;
63218;SDS011;49320;52.512;13.448;2022-08-30T08:38:44;2.13;;;1.92;;
63218;SDS011;49320;52.512;13.448;2022-08-30T08:44:22;3.17;;;1.92;;
63218;SDS011;49320;52.512;13.448;2022-08-30T08:49:52;1.60;;;1.50;;
63218;SDS011;49320;52.512;13.448;2022-08-30T08:55:20;1.58;;;1.30;;
63218;SDS011;49320;52.512;13.448;2022-08-30T08:57:49;1.63;;;1.38;;
63218;SDS011;49320;52.512;13.448;2022-08-30T09:00:17;2.83;;;2.45;;
63218;SDS011;49320;52.512;13.448;2022-08-30T09:02:45;2.47;;;1.77;;
63218;SDS011;49320;52.512;13.448;2022-08-30T09:05:36;3.38;;;1.92;;
63218;SDS011;49320;52.512;13.448;2022-08-30T09:08:06;1.92;;;1.23;;
63218;SDS011;49320;52.512;13.448;2022-08-30T09:10:40;3.03;;;1.35;;
63218;SDS011;49320;52.512;13.448;2022-08-30T09:13:27;1.52;;;1.00;;
63218;SDS011;49320;52.512;13.448;2022-08-30T09:15:57;1.27;;;1.00;;
63218;SDS011;49320;52.512;13.448;2022-08-30T09:18:42;1.60;;;1.13;;
63218;SDS011;49320;52.512;13.448;2022-08-30T09:21:22;3.30;;;0.90;;
63218;SDS011;49320;52.512;13.448;2022-08-30T09:23:57;1.92;;;1.20;;
63218;SDS011;49320;52.512;13.448;2022-08-30T09:26:34;1.10;;;1.00;;
63218;SDS011;49320;52.512;13.448;2022-08-30T09:29:04;1.90;;;0.90;;
63218;SDS011;49320;52.512;13.448;2022-08-30T09:31:46;1.27;;;0.98;;
63218;SDS011;49320;52.512;13.448;2022-08-30T09:34:38;1.10;;;1.00;;
63218;SDS011;49320;52.512;13.448;2022-08-30T09:37:09;1.30;;;1.00;;
63218;SDS011;49320;52.512;13.448;2022-08-30T09:39:56;2.83;;;1.10;;
63218;SDS011;49320;52.512;13.448;2022-08-30T09:42:25;1.17;;;1.05;;
63218;SDS011;49320;52.512;13.448;2022-08-30T09:44:55;1.85;;;1.00;;
63218;SDS011;49320;52.512;13.448;2022-08-30T09:47:40;1.38;;;1.10;;
63218;SDS011;49320;52.512;13.448;2022-08-30T09:50:10;0.80;;;0.80;;
63218;SDS011;49320;52.512;13.448;2022-08-30T09:52:58;1.80;;;1.25;;
63218;SDS011;49320;52.512;13.448;2022-08-30T09:55:48;1.85;;;0.90;;
63218;SDS011;49320;52.512;13.448;2022-08-30T09:58:54;1.35;;;1.00;;
63218;SDS011;49320;52.512;13.448;2022-08-30T10:01:52;0.80;;;0.80;;
63218;SDS011;49320;52.512;13.448;2022-08-30T10:10:55;1.17;;;0.90;;
63218;SDS011;49320;52.512;13.448;2022-08-30T10:16:31;0.85;;;0.70;;
63218;SDS011;49320;52.512;13.448;2022-08-30T10:22:11;1.13;;;0.80;;
63218;SDS011;49320;52.512;13.448;2022-08-30T10:24:50;0.80;;;0.77;;
63218;SDS011;49320;52.512;13.448;2022-08-30T10:30:17;0.70;;;0.70;;
63218;SDS011;49320;52.512;13.448;2022-08-30T10:35:22;0.82;;;0.60;;
63218;SDS011;49320;52.512;13.448;2022-08-30T10:38:05;1.00;;;0.60;;
63218;SDS011;49320;52.512;13.448;2022-08-30T10:40:45;1.05;;;0.75;;
63218;SDS011;49320;52.512;13.448;2022-08-30T10:43:51;1.25;;;0.70;;
63218;SDS011;49320;52.512;13.448;2022-08-30T10:49:34;1.02;;;0.60;;
63218;SDS011;49320;52.512;13.448;2022-08-30T10:52:18;1.15;;;0.90;;
63218;SDS011;49320;52.512;13.448;2022-08-30T10:55:06;1.83;;;1.00;;
63218;SDS011;49320;52.512;13.448;2022-08-30T10:57:40;0.80;;;0.80;;
63218;SDS011;49320;52.512;13.448;2022-08-30T11:00:09;1.00;;;0.90;;
63218;SDS011;49320;52.512;13.448;2022-08-30T11:02:58;0.75;;;0.70;;
63218;SDS011;49320;52.512;13.448;2022-08-30T11:05:54;1.75;;;1.02;;
63218;SDS011;49320;52.512;13.448;2022-08-30T11:09:06;0.82;;;0.82;;
63218;SDS011;49320;52.512;13.448;2022-08-30T11:11:59;0.95;;;0.90;;
63218;SDS011;49320;52.512;13.448;2022-08-30T11:14:52;0.85;;;0.80;;
63218;SDS011;49320;52.512;13.448;2022-08-30T11:17:24;0.90;;;0.77;;
63218;SDS011;49320;52.512;13.448;2022-08-30T11:19:59;1.00;;;0.90;;
63218;SDS011;49320;52.512;13.448;2022-08-30T11:22:35;0.73;;;0.70;;
63218;SDS011;49320;52.512;13.448;2022-08-30T11:25:07;1.63;;;0.70;;
63218;SDS011;49320;52.512;13.448;2022-08-30T11:28:04;1.00;;;0.90;;
63218;SDS011;49320;52.512;13.448;2022-08-30T11:35:40;0.68;;;0.68;;
63218;SDS011;49320;52.512;13.448;2022-08-30T12:01:13;1.30;;;0.88;;
63218;SDS011;49320;52.512;13.448;2022-08-30T12:06:44;1.30;;;0.95;;
63218;SDS011;49320;52.512;13.448;2022-08-30T12:11:52;2.13;;;1.08;;
63218;SDS011;49320;52.512;13.448;2022-08-30T12:17:17;0.93;;;0.80;;
63218;SDS011;49320;52.512;13.448;2022-08-30T12:20:14;1.00;;;0.90;;
63218;SDS011;49320;52.512;13.448;2022-08-30T12:22:53;2.47;;;0.90;;
63218;SDS011;49320;52.512;13.448;2022-08-30T12:28:13;0.80;;;0.80;;
63218;SDS011;49320;52.512;13.448;2022-08-30T12:30:48;1.25;;;0.73;;
63218;SDS011;49320;52.512;13.448;2022-08-30T12:33:24;0.85;;;0.85;;
63218;SDS011;49320;52.512;13.448;2022-08-30T12:36:10;1.50;;;1.05;;
63218;SDS011;49320;52.512;13.448;2022-08-30T12:39:11;0.95;;;0.63;;
63218;SDS011;49320;52.512;13.448;2022-08-30T12:41:43;2.10;;;0.80;;
63218;SDS011;49320;52.512;13.448;2022-08-30T12:44:12;1.05;;;0.95;;
63218;SDS011;49320;52.512;13.448;2022-08-30T12:46:45;2.38;;;0.90;;
63218;SDS011;49320;52.512;13.448;2022-08-30T12:49:23;1.30;;;0.90;;
63218;SDS011;49320;52.512;13.448;2022-08-30T12:51:53;1.00;;;0.90;;
63218;SDS011;49320;52.512;13.448;2022-08-30T12:54:25;1.45;;;1.02;;
63218;SDS011;49320;52.512;13.448;2022-08-30T12:56:57;1.00;;;0.90;;
63218;SDS011;49320;52.512;13.448;2022-08-30T12:59:49;1.85;;;0.90;;
63218;SDS011;49320;52.512;13.448;2022-08-30T13:02:39;1.85;;;0.98;;
63218;SDS011;49320;52.512;13.448;2022-08-30T13:05:30;1.30;;;1.10;;
63218;SDS011;49320;52.512;13.448;2022-08-30T13:08:24;2.05;;;1.05;;
63218;SDS011;49320;52.512;13.448;2022-08-30T13:11:05;1.30;;;1.20;;
63218;SDS011;49320;52.512;13.448;2022-08-30T13:13:56;1.35;;;1.25;;
63218;SDS011;49320;52.512;13.448;2022-08-30T13:16:45;1.38;;;1.27;;
63218;SDS011;49320;52.512;13.448;2022-08-30T13:22:11;1.63;;;1.33;;
63218;SDS011;49320;52.512;13.448;2022-08-30T13:25:28;2.00;;;1.60;;
63218;SDS011;49320;52.512;13.448;2022-08-30T13:27:58;1.55;;;1.40;;
63218;SDS011;49320;52.512;13.448;2022-08-30T13:30:27;1.70;;;1.48;;
63218;SDS011;49320;52.512;13.448;2022-08-30T13:32:54;2.03;;;1.60;;
63218;SDS011;49320;52.512;13.448;2022-08-30T13:35:21;1.70;;;1.60;;
63218;SDS011;49320;52.512;13.448;2022-08-30T13:37:48;1.45;;;1.35;;
63218;SDS011;49320;52.512;13.448;2022-08-30T13:40:17;2.30;;;1.45;;
63218;SDS011;49320;52.512;13.448;2022-08-30T13:42:46;2.40;;;1.95;;
63218;SDS011;49320;52.512;13.448;2022-08-30T13:45:15;2.00;;;1.63;;
63218;SDS011;49320;52.512;13.448;2022-08-30T13:48:05;1.90;;;1.52;;
63218;SDS011;49320;52.512;13.448;2022-08-30T13:50:32;1.45;;;1.35;;
63218;SDS011;49320;52.512;13.448;2022-08-30T13:52:59;2.58;;;1.80;;
63218;SDS011;49320;52.512;13.448;2022-08-30T13:55:26;1.98;;;1.60;;
63218;SDS011;49320;52.512;13.448;2022-08-30T13:57:53;1.70;;;1.48;;
63218;SDS011;49320;52.512;13.448;2022-08-30T14:00:23;1.63;;;1.50;;
63218;SDS011;49320;52.512;13.448;2022-08-30T14:02:51;1.40;;;1.30;;
63218;SDS011;49320;52.512;13.448;2022-08-30T14:05:26;1.73;;;1.30;;
63218;SDS011;49320;52.512;13.448;2022-08-30T14:08:15;1.73;;;1.30;;
63218;SDS011;49320;52.512;13.448;2022-08-30T14:11:14;1.85;;;1.58;;
63218;SDS011;49320;52.512;13.448;2022-08-30T14:13:46;1.67;;;1.58;;
63218;SDS011;49320;52.512;13.448;2022-08-30T14:16:35;1.58;;;1.45;;
63218;SDS011;49320;52.512;13.448;2022-08-30T14:19:06;1.95;;;1.70;;
63218;SDS011;49320;52.512;13.448;2022-08-30T14:21:34;2.20;;;1.40;;
63218;SDS011;49320;52.512;13.448;2022-08-30T14:24:01;2.40;;;1.70;;
63218;SDS011;49320;52.512;13.448;2022-08-30T14:26:32;1.52;;;1.40;;
63218;SDS011;49320;52.512;13.448;2022-08-30T14:29:11;1.88;;;1.55;;
63218;SDS011;49320;52.512;13.448;2022-08-30T14:31:42;1.73;;;1.63;;
63218;SDS011;49320;52.512;13.448;2022-08-30T14:34:12;2.90;;;1.75;;
63218;SDS011;49320;52.512;13.448;2022-08-30T14:36:39;2.58;;;1.70;;
63218;SDS011;49320;52.512;13.448;2022-08-30T14:39:10;2.30;;;1.77;;
63218;SDS011;49320;52.512;13.448;2022-08-30T14:41:42;1.95;;;1.75;;
63218;SDS011;49320;52.512;13.448;2022-08-30T14:44:13;1.95;;;1.65;;
63218;SDS011;49320;52.512;13.448;2022-08-30T14:46:42;1.70;;;1.60;;
63218;SDS011;49320;52.512;13.448;2022-08-30T14:49:10;2.47;;;1.50;;
63218;SDS011;49320;52.512;13.448;2022-08-30T14:51:38;1.63;;;1.52;;
63218;SDS011;49320;52.512;13.448;2022-08-30T14:54:06;1.88;;;1.70;;
63218;SDS011;49320;52.512;13.448;2022-08-30T14:56:35;2.15;;;1.60;;
63218;SDS011;49320;52.512;13.448;2022-08-30T14:59:03;3.10;;;1.55;;
63218;SDS011;49320;52.512;13.448;2022-08-30T15:01:32;1.75;;;1.48;;
63218;SDS011;49320;52.512;13.448;2022-08-30T15:04:02;3.30;;;1.65;;
63218;SDS011;49320;52.512;13.448;2022-08-30T15:06:33;1.85;;;1.60;;
63218;SDS011;49320;52.512;13.448;2022-08-30T15:09:02;2.88;;;1.95;;
63218;SDS011;49320;52.512;13.448;2022-08-30T15:11:32;2.03;;;1.83;;
63218;SDS011;49320;52.512;13.448;2022-08-30T15:13:59;4.53;;;1.45;;
63218;SDS011;49320;52.512;13.448;2022-08-30T15:16:28;1.88;;;1.52;;
63218;SDS011;49320;52.512;13.448;2022-08-30T15:19:00;2.25;;;1.88;;
63218;SDS011;49320;52.512;13.448;2022-08-30T15:21:32;1.75;;;1.65;;
63218;SDS011;49320;52.512;13.448;2022-08-30T15:24:03;3.20;;;1.60;;
63218;SDS011;49320;52.512;13.448;2022-08-30T15:26:34;1.77;;;1.65;;
63218;SDS011;49320;52.512;13.448;2022-08-30T15:29:06;2.80;;;1.70;;
63218;SDS011;49320;52.512;13.448;2022-08-30T15:31:33;2.55;;;1.75;;
63218;SDS011;49320;52.512;13.448;2022-08-30T15:34:01;2.58;;;1.58;;
63218;SDS011;49320;52.512;13.448;2022-08-30T15:36:28;2.85;;;1.40;;
63218;SDS011;49320;52.512;13.448;2022-08-30T15:38:55;2.00;;;1.80;;
63218;SDS011;49320;52.512;13.448;2022-08-30T15:41:24;1.45;;;1.35;;
63218;SDS011;49320;52.512;13.448;2022-08-30T15:43:54;2.20;;;1.60;;
63218;SDS011;49320;52.512;13.448;2022-08-30T15:46:24;2.00;;;1.65;;
63218;SDS011;49320;52.512;13.448;2022-08-30T15:48:58;2.17;;;1.58;;
63218;SDS011;49320;52.512;13.448;2022-08-30T15:51:32;1.83;;;1.60;;
63218;SDS011;49320;52.512;13.448;2022-08-30T15:54:07;1.48;;;1.33;;
63218;SDS011;49320;52.512;13.448;2022-08-30T15:56:37;1.63;;;1.40;;
63218;SDS011;49320;52.512;13.448;2022-08-30T15:59:07;2.85;;;1.40;;
63218;SDS011;49320;52.512;13.448;2022-08-30T16:01:35;2.58;;;1.70;;
63218;SDS011;49320;52.512;13.448;2022-08-30T16:04:04;1.60;;;1.50;;
63218;SDS011;49320;52.512;13.448;2022-08-30T16:06:32;1.55;;;1.30;;
63218;SDS011;49320;52.512;13.448;2022-08-30T16:09:03;2.45;;;1.60;;
63218;SDS011;49320;52.512;13.448;2022-08-30T16:11:32;1.77;;;1.08;;
63218;SDS011;49320;52.512;13.448;2022-08-30T16:13:59;3.03;;;2.00;;